FW3322 Weather Reports


Display with metric or nautical units.
time (UTC)temp
F
wind
direction
speed
MPH
gust
MPH
rain 1hr
in
rain 24hr
in
rain mn
in
humidity
%
barometer
mb
20240518071540 62 134 0.0 0.0 0.00 0.00 0.00 98 1009.0
20240518070044 63 134 0.0 0.0 0.00 0.00 0.00 98 1009.1
20240518064543 63 134 0.0 0.0 0.00 0.00 0.00 98 1009.1
20240518063039 63 134 0.0 0.0 0.00 0.00 0.00 98 1009.2
20240518061536 63 134 0.0 0.0 0.00 0.00 0.00 98 1009.3
20240518060036 63 134 0.0 0.0 0.00 0.00 0.00 97 1009.3
20240518054542 64 134 0.0 0.0 0.00 0.00 0.00 97 1009.2
20240518053030 64 134 0.0 0.0 0.00 0.00 0.00 97 1009.3
20240518051529 64 134 0.0 0.0 0.00 0.00 0.00 97 1009.3
20240518050026 65 133 0.0 0.0 0.00 0.00 0.00 96 1009.1
20240518044527 66 133 0.0 0.0 0.00 0.00 0.00 96 1009.0
20240518043024 66 134 0.0 0.0 0.00 0.00 0.00 95 1008.8
20240518041524 66 132 0.0 0.0 0.00 0.00 0.00 94 1008.8
20240518040024 66 132 0.0 0.0 0.00 0.00 0.00 94 1008.8
20240518034532 67 132 0.0 0.0 0.00 0.00 0.00 95 1008.8
20240518033023 67 132 0.0 0.0 0.00 0.00 0.00 94 1008.8
20240518031523 67 132 0.0 0.0 0.00 0.00 0.00 94 1008.7
20240518030025 69 213 0.0 0.0 0.00 0.00 0.00 91 1008.7
20240518024523 69 213 0.0 0.0 0.00 0.00 0.00 90 1008.4
20240518023021 70 213 0.0 0.0 0.00 0.00 0.00 90 1008.3
20240518021521 70 213 0.0 0.0 0.00 0.00 0.00 90 1008.2
20240518020023 70 213 0.0 0.0 0.00 0.00 0.00 90 1008.0
20240518014519 73 213 0.0 0.0 0.00 0.00 0.00 85 1007.8
20240518013019 74 213 0.0 0.0 0.00 0.00 0.00 84 1007.6
20240518011518 76 215 0.0 0.0 0.00 0.00 0.00 82 1007.6
20240518010029 78 215 0.0 0.0 0.00 0.00 0.00 76 1007.3
20240518004517 80 215 0.0 0.0 0.00 0.00 0.00 72 1007.3
20240518003017 81 215 0.0 0.0 0.00 0.00 0.00 70 1007.3
20240518001523 82 219 0.0 2.0 0.00 0.00 0.00 69 1007.1
20240518000021 81 214 0.0 4.0 0.00 0.00 0.00 69 1007.1
20240517234513 81 211 1.0 5.0 0.00 0.00 0.00 68 1007.1
20240517233012 82 234 1.0 5.0 0.00 0.00 0.00 68 1007.1
20240517231510 82 213 0.0 5.0 0.00 0.00 0.00 68 1007.2
20240517230024 82 272 0.0 4.0 0.00 0.00 0.00 69 1007.3
20240517224508 82 239 1.0 6.0 0.00 0.00 0.00 68 1007.3
20240517223023 83 215 1.0 4.0 0.00 0.00 0.00 67 1007.4
20240517221508 83 140 1.0 5.0 0.00 0.00 0.00 67 1007.4
20240517220008 82 142 1.0 5.0 0.00 0.00 0.00 69 1007.4
20240517214506 83 239 0.0 7.0 0.00 0.00 0.00 68 1007.4
20240517213004 84 160 1.0 3.0 0.00 0.00 0.00 67 1007.5
20240517211503 85 138 0.0 4.0 0.00 0.00 0.00 67 1007.6
20240517210004 84 217 0.0 6.0 0.00 0.00 0.00 67 1007.8
20240517204558 82 201 0.0 6.0 0.00 0.00 0.00 70 1008.0
20240517203056 81 182 3.0 7.0 0.00 0.00 0.00 68 1008.0
20240517201556 81 105 4.0 8.0 0.00 0.00 0.00 71 1008.2
20240517200059 81 142 0.0 7.0 0.00 0.00 0.00 68 1008.3
20240517194556 81 209 1.0 6.0 0.00 0.00 0.00 69 1008.5
20240517193100 80 145 1.0 7.0 0.00 0.00 0.00 71 1008.6
20240517191547 80 61 2.0 7.0 0.00 0.00 0.00 71 1008.8
20240517190103 80 148 2.0 7.0 0.00 0.00 0.00 68 1008.9
20240517184544 80 243 1.0 7.0 0.00 0.00 0.00 70 1008.9
20240517183053 79 123 1.0 4.0 0.00 0.00 0.00 71 1009.2
20240517181539 79 302 1.0 2.0 0.00 0.00 0.00 71 1009.1
20240517180042 79 44 1.0 5.0 0.00 0.00 0.00 70 1009.3
20240517174545 78 322 1.0 5.0 0.00 0.00 0.00 70 1009.5
20240517173036 78 286 2.0 6.0 0.00 0.00 0.00 70 1009.4
20240517171542 77 112 1.0 6.0 0.00 0.00 0.00 72 1009.7
20240517170036 77 201 2.0 6.0 0.00 0.00 0.00 74 1009.8
20240517164534 76 306 0.0 5.0 0.00 0.01 0.00 74 1009.9
20240517163035 77 306 3.0 7.0 0.00 0.01 0.00 72 1009.9
20240517161531 78 152 0.0 2.0 0.00 0.01 0.00 72 1009.9
20240517160027 76 141 0.0 2.0 0.00 0.01 0.00 75 1009.9
20240517154600 75 281 2.0 5.0 0.00 0.05 0.00 75 1009.9
20240517153039 75 213 0.0 4.0 0.00 0.05 0.00 81 1010.0
20240517151522 73 304 0.0 1.0 0.00 0.05 0.00 87 1010.0
20240517150016 71 325 0.0 1.0 0.00 0.05 0.00 92 1010.1
20240517144516 69 85 0.0 1.0 0.00 0.10 0.00 96 1010.1
20240517143007 67 285 0.0 1.0 0.00 0.10 0.00 99 1010.1
20240517141504 65 105 0.0 2.0 0.00 0.10 0.00 100 1010.1
20240517140002 64 107 0.0 2.0 0.00 0.10 0.00 100 1010.1
20240517134608 63 131 1.0 3.0 0.00 0.10 0.00 100 1010.0
20240517134501 63 144 1.0 4.0 0.00 0.10 0.00 100 1010.0
20240517133101 63 135 2.0 5.0 0.00 0.10 0.00 100 1010.0
20240517131556 62 140 3.0 5.0 0.00 0.10 0.00 100 1010.0
20240517130056 62 140 4.0 5.0 0.00 0.10 0.00 100 1009.9
20240517124552 60 132 0.0 1.0 0.00 0.10 0.00 100 1009.7
20240517123058 60 15 0.0 1.0 0.00 0.10 0.00 100 1009.7
20240517121548 59 295 0.0 2.0 0.00 0.10 0.00 100 1009.7
20240517120053 58 244 0.0 0.0 0.00 0.10 0.00 100 1009.4
20240517114551 58 244 0.0 0.0 0.00 0.11 0.00 100 1009.2
20240517113046 57 244 0.0 0.0 0.00 0.11 0.00 100 1009.3
20240517111546 57 244 0.0 0.0 0.00 0.11 0.00 100 1009.3
20240517110059 57 244 0.0 0.0 0.00 0.11 0.00 100 1009.4
20240517104552 57 244 0.0 0.0 0.00 0.13 0.00 100 1009.5
20240517103043 56 245 0.0 0.0 0.00 0.13 0.00 100 1009.3
20240517101542 57 245 0.0 0.0 0.00 0.13 0.00 100 1009.3
20240517100041 57 245 0.0 0.0 0.00 0.13 0.00 100 1009.2
20240517094540 57 245 0.0 0.0 0.00 0.21 0.00 100 1009.1
20240517093045 57 245 0.0 0.0 0.00 0.21 0.00 100 1009.3
20240517091545 57 245 0.0 0.0 0.00 0.21 0.00 100 1009.2
20240517090037 57 245 0.0 0.0 0.00 0.21 0.00 100 1009.1
20240517084536 57 245 0.0 0.0 0.00 0.75 0.00 100 1009.3
20240517083034 58 245 0.0 0.0 0.00 0.75 0.00 100 1009.3
20240517081533 58 245 0.0 0.0 0.00 0.75 0.00 100 1009.3
20240517080031 58 245 0.0 0.0 0.00 0.75 0.00 100 1009.4
20240517074529 58 245 0.0 0.0 0.00 1.46 0.00 100 1009.6
20240517073027 58 198 0.0 0.0 0.00 1.46 0.00 100 1009.6